Time;durP1;ratioP1;P1;durP2;ratioP2;P2;SDS_P1;SDS_P2;PMS_P1;PMS_P2;Temp;Humidity;BMP_temperature;BMP_pressure;BME280_temperature;BME280_humidity;BME280_pressure;Samples;Min_cycle;Max_cycle;Signal;HPM_P1;HPM_P2
2021/01/21 00:00:56;;;;;;;3.08;2.47;;;;;;;;;;2084679;28;20632;-58
2021/01/21 00:01:56;;;;;;;3.95;2.58;;;;;;;;;;2082938;28;20250;-57
2021/01/21 00:02:56;;;;;;;3.08;2.42;;;;;;;;;;2085756;28;20173;-60
2021/01/21 00:03:57;;;;;;;4.25;2.53;;;;;;;;;;2083074;28;20172;-57
2021/01/21 00:04:57;;;;;;;2.97;2.40;;;;;;;;;;2084630;28;20648;-59
2021/01/21 00:05:57;;;;;;;3.58;2.60;;;;;;;;;;2077423;28;20827;-58
2021/01/21 00:06:57;;;;;;;3.10;2.50;;;;;;;;;;2074310;28;20189;-61
2021/01/21 00:07:58;;;;;;;2.40;2.17;;;;;;;;;;2086500;28;20175;-61
2021/01/21 00:08:58;;;;;;;3.10;2.72;;;;;;;;;;2083056;28;20234;-58
2021/01/21 00:09:58;;;;;;;2.65;2.42;;;;;;;;;;2083807;28;20660;-58
2021/01/21 00:10:59;;;;;;;2.78;2.58;;;;;;;;;;2086681;28;20182;-57
2021/01/21 00:11:59;;;;;;;5.55;2.63;;;;;;;;;;2087719;28;20250;-57
2021/01/21 00:12:59;;;;;;;3.22;2.42;;;;;;;;;;2086283;28;20261;-57
2021/01/21 00:13:59;;;;;;;2.72;2.33;;;;;;;;;;2084412;28;20190;-55
2021/01/21 00:15:00;;;;;;;2.92;2.42;;;;;;;;;;2077259;28;20208;-57
2021/01/21 00:16:01;;;;;;;3.08;2.15;;;;;;;;;;2076689;28;20181;-60
2021/01/21 00:17:01;;;;;;;4.30;2.38;;;;;;;;;;2083502;28;20187;-55
2021/01/21 00:18:01;;;;;;;4.55;2.40;;;;;;;;;;2086778;28;20168;-53
2021/01/21 00:19:01;;;;;;;3.50;2.92;;;;;;;;;;2077434;28;20204;-61
2021/01/21 00:20:03;;;;;;;5.20;2.60;;;;;;;;;;2074605;28;20189;-54
2021/01/21 00:21:03;;;;;;;4.03;2.28;;;;;;;;;;2083561;28;20156;-57
2021/01/21 00:22:03;;;;;;;3.15;2.53;;;;;;;;;;2085944;28;20710;-57
2021/01/21 00:23:04;;;;;;;3.20;2.42;;;;;;;;;;2085526;28;20255;-58
2021/01/21 00:24:04;;;;;;;5.85;2.53;;;;;;;;;;2088164;28;20427;-58
2021/01/21 00:25:04;;;;;;;2.50;2.30;;;;;;;;;;2076631;28;20192;-52
2021/01/21 00:26:05;;;;;;;2.95;2.33;;;;;;;;;;2075755;28;20180;-60
2021/01/21 00:27:05;;;;;;;3.47;2.40;;;;;;;;;;2083396;28;20234;-59
2021/01/21 00:28:05;;;;;;;4.30;2.33;;;;;;;;;;2084212;28;20179;-57
2021/01/21 00:29:06;;;;;;;3.63;2.38;;;;;;;;;;2084989;28;20168;-58
2021/01/21 00:30:07;;;;;;;4.13;2.55;;;;;;;;;;2085299;28;20671;-58
2021/01/21 00:31:08;;;;;;;2.33;2.15;;;;;;;;;;2086180;28;20712;-57
2021/01/21 00:32:08;;;;;;;3.60;3.20;;;;;;;;;;2088878;28;20180;-58
2021/01/21 00:33:08;;;;;;;4.03;2.53;;;;;;;;;;2084901;28;20172;-58
2021/01/21 00:34:09;;;;;;;2.88;2.30;;;;;;;;;;2084185;28;20183;-56
2021/01/21 00:35:11;;;;;;;2.90;2.30;;;;;;;;;;2076677;28;20204;-60
2021/01/21 00:36:13;;;;;;;4.90;2.65;;;;;;;;;;2076448;28;20603;-58
2021/01/21 00:37:13;;;;;;;2.45;2.28;;;;;;;;;;2087624;28;20293;-58
2021/01/21 00:38:14;;;;;;;2.65;2.40;;;;;;;;;;2083882;28;20176;-57
2021/01/21 00:39:14;;;;;;;2.15;2.05;;;;;;;;;;2085464;28;20175;-58
2021/01/21 00:40:14;;;;;;;4.38;2.42;;;;;;;;;;2077166;28;20223;-59
2021/01/21 00:41:15;;;;;;;4.15;2.40;;;;;;;;;;2077338;28;20177;-59
2021/01/21 00:42:15;;;;;;;2.88;2.20;;;;;;;;;;2075910;28;20286;-59
2021/01/21 00:43:15;;;;;;;2.85;2.58;;;;;;;;;;2074146;28;20231;-59
2021/01/21 00:44:16;;;;;;;2.67;2.20;;;;;;;;;;2074471;28;20243;-58
2021/01/21 00:45:17;;;;;;;2.28;2.05;;;;;;;;;;2072957;28;20655;-58
2021/01/21 00:46:17;;;;;;;2.65;2.45;;;;;;;;;;2080626;28;20491;-58
2021/01/21 00:47:17;;;;;;;3.63;2.22;;;;;;;;;;2088939;28;20179;-60
2021/01/21 00:48:18;;;;;;;5.63;2.78;;;;;;;;;;2089364;28;20159;-58
2021/01/21 00:49:19;;;;;;;3.72;2.42;;;;;;;;;;2089526;28;20172;-58
2021/01/21 00:50:19;;;;;;;2.28;2.08;;;;;;;;;;2089365;28;20821;-57
2021/01/21 00:51:19;;;;;;;2.20;2.08;;;;;;;;;;2072552;28;20175;-59
2021/01/21 00:52:20;;;;;;;2.50;2.30;;;;;;;;;;2072329;28;20191;-59
2021/01/21 00:53:20;;;;;;;3.08;2.55;;;;;;;;;;2089515;28;20167;-58
2021/01/21 00:54:20;;;;;;;2.33;2.13;;;;;;;;;;2080012;28;20204;-59
2021/01/21 00:55:21;;;;;;;3.20;2.40;;;;;;;;;;2072170;28;20239;-57
2021/01/21 00:56:22;;;;;;;2.15;2.03;;;;;;;;;;2090806;23;20247;-55
2021/01/21 00:57:24;;;;;;;2.17;1.98;;;;;;;;;;2089912;28;20186;-55
2021/01/21 00:58:24;;;;;;;4.80;2.60;;;;;;;;;;2081608;28;20836;-56
2021/01/21 00:59:25;;;;;;;5.00;2.70;;;;;;;;;;2078666;28;20184;-54
2021/01/21 01:00:25;;;;;;;3.22;2.45;;;;;;;;;;2086133;28;20225;-57
2021/01/21 01:01:26;;;;;;;2.63;2.10;;;;;;;;;;2078795;28;20756;-58
2021/01/21 01:02:26;;;;;;;2.63;2.42;;;;;;;;;;2086604;28;20184;-57
2021/01/21 01:03:26;;;;;;;5.50;2.45;;;;;;;;;;2095373;28;20176;-58
2021/01/21 01:04:26;;;;;;;3.45;2.38;;;;;;;;;;2084938;28;20188;-57
2021/01/21 01:05:27;;;;;;;4.68;2.60;;;;;;;;;;2083767;28;20265;-54
2021/01/21 01:06:28;;;;;;;5.80;2.55;;;;;;;;;;2084544;28;20183;-57
2021/01/21 01:07:29;;;;;;;3.40;2.63;;;;;;;;;;2083957;28;20234;-55
2021/01/21 01:08:31;;;;;;;4.28;2.30;;;;;;;;;;2075380;28;20193;-56
2021/01/21 01:09:31;;;;;;;2.90;2.58;;;;;;;;;;2070830;28;20249;-57
2021/01/21 01:10:32;;;;;;;2.40;2.20;;;;;;;;;;2084161;28;20180;-57
2021/01/21 01:11:37;;;;;;;4.30;2.20;;;;;;;;;;2071843;28;20893;-55
2021/01/21 01:12:38;;;;;;;4.35;2.70;;;;;;;;;;2075685;28;20183;-57
2021/01/21 01:13:38;;;;;;;3.10;2.45;;;;;;;;;;2083454;28;20273;-58
2021/01/21 01:14:41;;;;;;;3.42;2.45;;;;;;;;;;2075829;28;20223;-58
2021/01/21 01:15:42;;;;;;;3.03;2.40;;;;;;;;;;2075735;28;20188;-57
2021/01/21 01:16:42;;;;;;;2.35;2.15;;;;;;;;;;2075467;28;20211;-58
2021/01/21 01:17:43;;;;;;;2.72;2.10;;;;;;;;;;2075105;28;20260;-58
2021/01/21 01:18:43;;;;;;;4.30;2.30;;;;;;;;;;2075474;28;20180;-54
2021/01/21 01:19:44;;;;;;;2.38;2.10;;;;;;;;;;2087317;28;20168;-58
2021/01/21 01:20:48;;;;;;;2.70;2.30;;;;;;;;;;2084086;28;20203;-57
2021/01/21 01:21:49;;;;;;;4.55;2.42;;;;;;;;;;2082067;28;20204;-53
2021/01/21 01:22:53;;;;;;;2.40;2.25;;;;;;;;;;2075721;28;20603;-54
2021/01/21 01:23:54;;;;;;;2.65;2.45;;;;;;;;;;2085465;28;20171;-57
2021/01/21 01:24:56;;;;;;;2.72;2.50;;;;;;;;;;2074151;28;20181;-58
2021/01/21 01:25:57;;;;;;;5.30;2.47;;;;;;;;;;2083483;28;20344;-57
2021/01/21 01:26:57;;;;;;;2.70;2.40;;;;;;;;;;2084693;28;20230;-54
2021/01/21 01:27:59;;;;;;;3.72;2.33;;;;;;;;;;2084400;28;20169;-58
2021/01/21 01:28:59;;;;;;;3.35;2.47;;;;;;;;;;2084739;28;20231;-57
2021/01/21 01:29:59;;;;;;;5.32;2.50;;;;;;;;;;2076111;28;20176;-57
2021/01/21 01:31:00;;;;;;;2.60;2.40;;;;;;;;;;2072789;28;20188;-52
2021/01/21 01:32:00;;;;;;;4.30;2.60;;;;;;;;;;2076975;28;20235;-58
2021/01/21 01:33:11;;;;;;;2.60;2.40;;;;;;;;;;2078127;28;20243;-58
2021/01/21 01:34:12;;;;;;;2.85;2.35;;;;;;;;;;2072260;28;20181;-57
2021/01/21 01:35:32;;;;;;;2.25;2.05;;;;;;;;;;2085342;28;20243;-58
2021/01/21 01:36:32;;;;;;;3.92;2.72;;;;;;;;;;2092229;28;20768;-58
2021/01/21 01:37:34;;;;;;;2.67;2.20;;;;;;;;;;2081917;28;20671;-58
2021/01/21 01:38:44;;;;;;;2.35;2.00;;;;;;;;;;2077326;28;20165;-58
2021/01/21 01:40:07;;;;;;;2.55;2.17;;;;;;;;;;2079474;28;20180;-58
2021/01/21 01:41:11;;;;;;;2.42;2.20;;;;;;;;;;2079368;28;20250;-58
2021/01/21 01:42:12;;;;;;;2.97;2.15;;;;;;;;;;2083577;28;20172;-57
2021/01/21 01:43:16;;;;;;;2.90;2.60;;;;;;;;;;2091727;28;20221;-57
2021/01/21 01:44:19;;;;;;;2.28;2.08;;;;;;;;;;2082701;28;20200;-57
2021/01/21 01:45:20;;;;;;;3.03;2.05;;;;;;;;;;2068390;28;20174;-56
2021/01/21 01:46:25;;;;;;;3.28;2.33;;;;;;;;;;2075467;28;20197;-55
2021/01/21 01:47:25;;;;;;;1.98;1.75;;;;;;;;;;2082107;28;20172;-59
2021/01/21 01:48:26;;;;;;;2.95;2.17;;;;;;;;;;2077002;28;20640;-58
2021/01/21 01:49:34;;;;;;;4.38;2.30;;;;;;;;;;2090426;28;20197;-58
2021/01/21 01:50:35;;;;;;;4.82;2.25;;;;;;;;;;2083277;28;20164;-57
2021/01/21 01:51:38;;;;;;;2.63;2.28;;;;;;;;;;2076564;28;20180;-57
2021/01/21 01:52:41;;;;;;;2.50;2.25;;;;;;;;;;2069597;28;20317;-57
2021/01/21 01:53:48;;;;;;;2.38;2.10;;;;;;;;;;2073616;28;20197;-59
2021/01/21 01:54:54;;;;;;;2.22;2.03;;;;;;;;;;2074721;28;20197;-57
2021/01/21 01:56:05;;;;;;;3.53;2.33;;;;;;;;;;2070534;28;20178;-57
2021/01/21 01:57:15;;;;;;;2.60;2.20;;;;;;;;;;2063201;28;20167;-57
2021/01/21 01:58:17;;;;;;;2.80;2.08;;;;;;;;;;2060219;28;20173;-56
2021/01/21 01:59:22;;;;;;;4.05;2.05;;;;;;;;;;2075768;28;20168;-58
2021/01/21 02:00:28;;;;;;;2.55;2.35;;;;;;;;;;2074224;28;20169;-58
2021/01/21 02:01:35;;;;;;;6.32;2.75;;;;;;;;;;2075423;28;20236;-54
2021/01/21 02:02:40;;;;;;;4.32;2.13;;;;;;;;;;2082605;28;20211;-55
2021/01/21 02:03:41;;;;;;;3.80;2.58;;;;;;;;;;2067052;28;20646;-55
2021/01/21 02:05:04;;;;;;;3.95;2.47;;;;;;;;;;2083291;28;20787;-58
2021/01/21 02:06:08;;;;;;;4.93;2.53;;;;;;;;;;2081970;28;20199;-58
2021/01/21 02:07:09;;;;;;;2.88;1.85;;;;;;;;;;2082110;28;20695;-58
2021/01/21 02:08:23;;;;;;;2.10;1.90;;;;;;;;;;2078050;28;20172;-56
2021/01/21 02:09:24;;;;;;;2.10;1.73;;;;;;;;;;2074427;28;20248;-58
2021/01/21 02:10:25;;;;;;;2.65;2.38;;;;;;;;;;2074370;28;20259;-57
2021/01/21 02:11:54;;;;;;;2.58;2.10;;;;;;;;;;2074402;28;20684;-58
2021/01/21 02:12:57;;;;;;;3.80;2.55;;;;;;;;;;2077925;28;20176;-58
2021/01/21 02:14:02;;;;;;;2.70;2.50;;;;;;;;;;2080758;28;20195;-56
2021/01/21 02:15:10;;;;;;;3.63;2.08;;;;;;;;;;2078934;28;20195;-55
2021/01/21 02:16:34;;;;;;;2.28;2.08;;;;;;;;;;2076855;28;20287;-59
2021/01/21 02:17:34;;;;;;;3.08;2.30;;;;;;;;;;2073858;28;20809;-55
2021/01/21 02:18:42;;;;;;;3.97;2.30;;;;;;;;;;2073690;28;20177;-58
2021/01/21 02:20:02;;;;;;;2.15;1.92;;;;;;;;;;2069640;28;20715;-57
2021/01/21 02:21:21;;;;;;;2.65;2.47;;;;;;;;;;2082589;28;20161;-58
2021/01/21 02:22:40;;;;;;;4.85;2.30;;;;;;;;;;2079996;28;20168;-57
2021/01/21 02:24:05;;;;;;;3.90;2.38;;;;;;;;;;2076995;28;20178;-58
2021/01/21 02:25:15;;;;;;;2.50;2.30;;;;;;;;;;2073955;28;20241;-58
2021/01/21 02:26:32;;;;;;;2.80;2.45;;;;;;;;;;2068420;28;20578;-57
2021/01/21 02:27:50;;;;;;;2.63;2.03;;;;;;;;;;2075156;28;20268;-58
2021/01/21 02:28:50;;;;;;;3.33;2.28;;;;;;;;;;2076149;28;20172;-57
2021/01/21 02:29:51;;;;;;;4.25;2.10;;;;;;;;;;2082149;28;20664;-59
2021/01/21 02:30:54;;;;;;;4.05;2.20;;;;;;;;;;2083113;28;20180;-58
2021/01/21 02:32:06;;;;;;;3.13;2.20;;;;;;;;;;2081882;28;20179;-56
2021/01/21 02:33:11;;;;;;;2.00;1.90;;;;;;;;;;2078663;28;20164;-57
2021/01/21 02:34:15;;;;;;;3.30;2.40;;;;;;;;;;2076954;28;20654;-59
2021/01/21 02:35:17;;;;;;;2.80;1.98;;;;;;;;;;2078855;28;20203;-56
2021/01/21 02:36:29;;;;;;;2.40;2.20;;;;;;;;;;2076924;28;20685;-57
2021/01/21 02:37:30;;;;;;;3.28;2.13;;;;;;;;;;2076590;28;20629;-56
2021/01/21 02:38:39;;;;;;;2.30;2.10;;;;;;;;;;2081884;28;20179;-59
2021/01/21 02:39:44;;;;;;;2.50;1.77;;;;;;;;;;2072743;28;20666;-57
2021/01/21 02:40:46;;;;;;;2.90;2.13;;;;;;;;;;2074946;28;20216;-57
2021/01/21 02:41:50;;;;;;;1.90;1.80;;;;;;;;;;2081883;28;20171;-55
2021/01/21 02:42:50;;;;;;;2.00;1.90;;;;;;;;;;2060866;28;20204;-55
2021/01/21 02:43:54;;;;;;;2.30;1.90;;;;;;;;;;2071186;28;20181;-57
2021/01/21 02:44:56;;;;;;;4.20;2.20;;;;;;;;;;2079757;28;20207;-56
2021/01/21 02:45:58;;;;;;;2.22;2.03;;;;;;;;;;2079118;28;20211;-57
2021/01/21 02:46:58;;;;;;;3.03;2.13;;;;;;;;;;2076023;28;20199;-53
2021/01/21 02:48:01;;;;;;;2.13;1.92;;;;;;;;;;2078228;28;20173;-58
2021/01/21 02:49:15;;;;;;;3.08;2.30;;;;;;;;;;2067304;28;20541;-56
2021/01/21 02:50:16;;;;;;;3.85;2.42;;;;;;;;;;2069840;28;20268;-58
2021/01/21 02:51:32;;;;;;;2.90;2.10;;;;;;;;;;2070389;28;20173;-57
2021/01/21 02:52:36;;;;;;;2.55;1.90;;;;;;;;;;2067091;28;20170;-58
2021/01/21 02:53:38;;;;;;;2.95;1.92;;;;;;;;;;2073006;28;20189;-57
2021/01/21 02:54:41;;;;;;;2.20;2.10;;;;;;;;;;2065709;28;20288;-56
2021/01/21 02:55:45;;;;;;;3.97;2.10;;;;;;;;;;2081095;28;20175;-58
2021/01/21 02:56:46;;;;;;;3.30;2.13;;;;;;;;;;2073649;28;20219;-60
2021/01/21 02:57:58;;;;;;;2.15;1.70;;;;;;;;;;2067285;28;20658;-58
2021/01/21 02:59:00;;;;;;;4.38;2.10;;;;;;;;;;2072014;28;20161;-58
2021/01/21 03:00:03;;;;;;;2.30;2.05;;;;;;;;;;2078062;28;20754;-56
2021/01/21 03:01:04;;;;;;;1.90;1.80;;;;;;;;;;2074161;28;20242;-58
2021/01/21 03:02:06;;;;;;;2.15;1.70;;;;;;;;;;2076694;28;20203;-53
2021/01/21 03:03:10;;;;;;;6.13;2.47;;;;;;;;;;2070334;28;20169;-59
2021/01/21 03:04:10;;;;;;;2.15;1.92;;;;;;;;;;2073859;28;20224;-59
2021/01/21 03:05:14;;;;;;;2.67;2.20;;;;;;;;;;2076331;28;20169;-57
2021/01/21 03:06:16;;;;;;;2.30;1.83;;;;;;;;;;2073644;28;20193;-58
2021/01/21 03:07:25;;;;;;;2.33;1.95;;;;;;;;;;2078460;28;20282;-58
2021/01/21 03:08:28;;;;;;;3.65;1.92;;;;;;;;;;2074372;28;20256;-58
2021/01/21 03:09:29;;;;;;;2.33;1.63;;;;;;;;;;2073906;28;20169;-57
2021/01/21 03:10:29;;;;;;;3.13;2.03;;;;;;;;;;2079137;28;20595;-59
2021/01/21 03:11:29;;;;;;;5.03;2.10;;;;;;;;;;2074313;28;20169;-59
2021/01/21 03:12:34;;;;;;;3.03;2.03;;;;;;;;;;2078877;28;20176;-57
2021/01/21 03:13:43;;;;;;;3.70;2.15;;;;;;;;;;2081951;28;20175;-59
2021/01/21 03:14:44;;;;;;;2.25;1.90;;;;;;;;;;2082210;28;20262;-58
2021/01/21 03:15:44;;;;;;;2.00;1.90;;;;;;;;;;2083669;28;20664;-57
2021/01/21 03:16:54;;;;;;;2.30;1.98;;;;;;;;;;2084503;28;20262;-59
2021/01/21 03:17:55;;;;;;;2.22;2.03;;;;;;;;;;2077310;28;20230;-58
2021/01/21 03:19:00;;;;;;;2.15;1.85;;;;;;;;;;2074747;28;21079;-58
2021/01/21 03:20:00;;;;;;;2.20;1.75;;;;;;;;;;2078186;28;20180;-57
2021/01/21 03:21:01;;;;;;;3.17;2.10;;;;;;;;;;2080334;28;20205;-58
2021/01/21 03:22:09;;;;;;;2.78;1.73;;;;;;;;;;2073740;28;20264;-59
2021/01/21 03:23:12;;;;;;;2.10;1.90;;;;;;;;;;2080822;28;20173;-61
2021/01/21 03:24:20;;;;;;;2.72;1.90;;;;;;;;;;2072166;28;20180;-57
2021/01/21 03:25:35;;;;;;;2.10;1.90;;;;;;;;;;2075877;28;20226;-56
2021/01/21 03:26:40;;;;;;;1.98;1.70;;;;;;;;;;2070222;28;20229;-58
2021/01/21 03:27:46;;;;;;;1.95;1.85;;;;;;;;;;2074964;28;20322;-60
2021/01/21 03:28:53;;;;;;;3.03;2.22;;;;;;;;;;2083734;28;20260;-58
2021/01/21 03:29:54;;;;;;;2.15;1.95;;;;;;;;;;2092853;28;20176;-57
2021/01/21 03:30:58;;;;;;;2.95;1.73;;;;;;;;;;2083914;28;20233;-57
2021/01/21 03:31:58;;;;;;;2.15;1.92;;;;;;;;;;2073648;28;20181;-58
2021/01/21 03:33:03;;;;;;;4.15;1.95;;;;;;;;;;2070905;28;20173;-57
2021/01/21 03:34:11;;;;;;;3.50;1.90;;;;;;;;;;2072992;28;20176;-56
2021/01/21 03:35:17;;;;;;;1.90;1.80;;;;;;;;;;2074474;28;20643;-56
2021/01/21 03:36:22;;;;;;;2.17;2.03;;;;;;;;;;2071245;28;20193;-57
2021/01/21 03:37:23;;;;;;;4.05;1.70;;;;;;;;;;2070068;28;20179;-58
2021/01/21 03:38:25;;;;;;;2.53;2.08;;;;;;;;;;2080499;28;20160;-56
2021/01/21 03:39:48;;;;;;;4.65;1.98;;;;;;;;;;2081189;28;20598;-58
2021/01/21 03:41:04;;;;;;;4.47;1.60;;;;;;;;;;2073403;28;20219;-58
2021/01/21 03:42:08;;;;;;;1.77;1.67;;;;;;;;;;2072816;28;20203;-57
2021/01/21 03:43:21;;;;;;;1.70;1.60;;;;;;;;;;2069574;28;20170;-59
2021/01/21 03:44:29;;;;;;;1.52;1.52;;;;;;;;;;2068463;28;20247;-57
2021/01/21 03:45:33;;;;;;;2.72;1.98;;;;;;;;;;2071430;28;20165;-57
2021/01/21 03:46:39;;;;;;;3.92;1.90;;;;;;;;;;2082108;28;20192;-59
2021/01/21 03:47:43;;;;;;;2.65;2.10;;;;;;;;;;2079346;28;20219;-57
2021/01/21 03:48:44;;;;;;;2.53;2.33;;;;;;;;;;2081659;28;20172;-58
2021/01/21 03:50:04;;;;;;;2.72;2.10;;;;;;;;;;2076567;28;20215;-58
2021/01/21 03:51:09;;;;;;;2.60;2.40;;;;;;;;;;2078157;28;20168;-59
2021/01/21 03:52:16;;;;;;;4.78;2.05;;;;;;;;;;2074665;28;20177;-58
2021/01/21 03:53:29;;;;;;;2.58;1.90;;;;;;;;;;2070541;28;20169;-57
2021/01/21 03:54:49;;;;;;;2.58;1.95;;;;;;;;;;2068691;28;20216;-59
2021/01/21 03:55:52;;;;;;;3.70;2.00;;;;;;;;;;2069783;28;20201;-57
2021/01/21 03:56:52;;;;;;;2.92;2.03;;;;;;;;;;2072712;28;20196;-57
2021/01/21 03:57:54;;;;;;;2.00;1.80;;;;;;;;;;2069092;28;20687;-57
2021/01/21 03:59:09;;;;;;;1.73;1.63;;;;;;;;;;2067257;28;20164;-56
2021/01/21 04:00:17;;;;;;;3.33;1.90;;;;;;;;;;2066618;28;20184;-55
2021/01/21 04:01:21;;;;;;;2.15;1.95;;;;;;;;;;2073872;28;20199;-58
2021/01/21 04:02:24;;;;;;;2.60;1.60;;;;;;;;;;2071062;28;20177;-57
2021/01/21 04:03:43;;;;;;;1.90;1.67;;;;;;;;;;2077205;28;20255;-59
2021/01/21 04:04:44;;;;;;;1.92;1.83;;;;;;;;;;2067935;28;20233;-57
2021/01/21 04:05:50;;;;;;;2.40;2.00;;;;;;;;;;2068262;28;20799;-54
2021/01/21 04:06:54;;;;;;;2.50;1.90;;;;;;;;;;2074442;28;20192;-57
2021/01/21 04:08:02;;;;;;;2.13;2.03;;;;;;;;;;2079773;28;20203;-55
2021/01/21 04:09:09;;;;;;;1.80;1.63;;;;;;;;;;2075352;28;20187;-58
2021/01/21 04:10:18;;;;;;;3.50;1.60;;;;;;;;;;2067930;28;20180;-58
2021/01/21 04:11:42;;;;;;;2.45;1.70;;;;;;;;;;2080955;28;20183;-58
2021/01/21 04:12:48;;;;;;;4.05;2.03;;;;;;;;;;2073466;28;20185;-57
2021/01/21 04:13:48;;;;;;;1.40;1.40;;;;;;;;;;2072561;28;20576;-55
2021/01/21 04:14:52;;;;;;;1.88;1.50;;;;;;;;;;2068877;28;20308;-58
2021/01/21 04:15:54;;;;;;;4.10;1.50;;;;;;;;;;2056956;28;20178;-56
2021/01/21 04:16:55;;;;;;;2.55;1.77;;;;;;;;;;2063025;28;20697;-56
2021/01/21 04:17:59;;;;;;;1.88;1.75;;;;;;;;;;2072065;28;20232;-55
2021/01/21 04:19:00;;;;;;;2.20;1.75;;;;;;;;;;2072686;28;20339;-55
2021/01/21 04:20:01;;;;;;;1.73;1.60;;;;;;;;;;2077362;28;20181;-57
2021/01/21 04:21:01;;;;;;;1.90;1.80;;;;;;;;;;2074660;28;20308;-56
2021/01/21 04:22:01;;;;;;;3.63;1.75;;;;;;;;;;2075205;28;20347;-58
2021/01/21 04:23:03;;;;;;;1.40;1.30;;;;;;;;;;2075723;28;20176;-57
2021/01/21 04:24:04;;;;;;;1.75;1.60;;;;;;;;;;2071777;28;20189;-58
2021/01/21 04:25:19;;;;;;;1.95;1.48;;;;;;;;;;2075357;28;20302;-57
2021/01/21 04:26:25;;;;;;;2.60;1.65;;;;;;;;;;2081112;28;20176;-57
2021/01/21 04:27:29;;;;;;;2.55;1.75;;;;;;;;;;2079713;28;20182;-56
2021/01/21 04:28:29;;;;;;;1.80;1.70;;;;;;;;;;2073730;28;20168;-58
2021/01/21 04:29:29;;;;;;;1.65;1.55;;;;;;;;;;2074399;28;20184;-56
2021/01/21 04:30:30;;;;;;;4.30;1.65;;;;;;;;;;2077031;28;20184;-57
2021/01/21 04:31:30;;;;;;;4.65;1.70;;;;;;;;;;2078945;28;20235;-56
2021/01/21 04:32:38;;;;;;;2.08;1.70;;;;;;;;;;2082605;28;20179;-55
2021/01/21 04:33:39;;;;;;;2.90;2.38;;;;;;;;;;2066819;28;20192;-56
2021/01/21 04:34:40;;;;;;;1.85;1.52;;;;;;;;;;2070146;28;20274;-59
2021/01/21 04:35:40;;;;;;;1.60;1.50;;;;;;;;;;2066182;28;20192;-57
2021/01/21 04:36:41;;;;;;;2.55;1.70;;;;;;;;;;2074648;28;20189;-58
2021/01/21 04:37:42;;;;;;;1.60;1.35;;;;;;;;;;2066328;28;20166;-57
2021/01/21 04:38:50;;;;;;;2.88;2.05;;;;;;;;;;2081961;28;20176;-58
2021/01/21 04:39:53;;;;;;;1.52;1.50;;;;;;;;;;2080895;28;20175;-56
2021/01/21 04:40:57;;;;;;;2.85;1.58;;;;;;;;;;2069738;28;20189;-57
2021/01/21 04:42:19;;;;;;;1.85;1.65;;;;;;;;;;2074993;28;20195;-61
2021/01/21 04:43:20;;;;;;;2.17;1.70;;;;;;;;;;2073483;28;20165;-56
2021/01/21 04:44:20;;;;;;;2.47;1.80;;;;;;;;;;2078225;28;20200;-57
2021/01/21 04:45:35;;;;;;;1.77;1.65;;;;;;;;;;2068295;28;20177;-58
2021/01/21 04:46:35;;;;;;;1.75;1.65;;;;;;;;;;2074857;28;20188;-60
2021/01/21 04:47:37;;;;;;;2.92;2.22;;;;;;;;;;2080810;28;20164;-55
2021/01/21 04:48:50;;;;;;;2.58;1.95;;;;;;;;;;2069129;28;20192;-57
2021/01/21 04:49:52;;;;;;;1.50;1.40;;;;;;;;;;2072927;28;20165;-58
2021/01/21 04:50:53;;;;;;;2.17;1.50;;;;;;;;;;2067681;28;20184;-58
2021/01/21 04:52:09;;;;;;;2.67;1.58;;;;;;;;;;2072000;28;20196;-57
2021/01/21 04:53:15;;;;;;;4.93;2.03;;;;;;;;;;2078277;28;20256;-57
2021/01/21 04:54:28;;;;;;;1.90;1.70;;;;;;;;;;2074442;28;20176;-57
2021/01/21 04:56:04;;;;;;;2.42;2.00;;;;;;;;;;2081303;28;20168;-54
2021/01/21 04:57:56;;;;;;;1.60;1.50;;;;;;;;;;2079916;28;20683;-56
2021/01/21 04:59:01;;;;;;;3.42;1.90;;;;;;;;;;2064955;28;20267;-56
2021/01/21 05:00:15;;;;;;;1.67;1.50;;;;;;;;;;2073369;28;20179;-57
2021/01/21 05:01:24;;;;;;;1.48;1.38;;;;;;;;;;2073494;28;20166;-56
2021/01/21 05:02:27;;;;;;;1.95;1.52;;;;;;;;;;2079973;28;20251;-58
2021/01/21 05:03:39;;;;;;;1.73;1.63;;;;;;;;;;2076827;28;20242;-59
2021/01/21 05:04:59;;;;;;;2.67;1.50;;;;;;;;;;2082770;28;20185;-57
2021/01/21 05:06:12;;;;;;;2.00;1.40;;;;;;;;;;2080742;28;20573;-59
2021/01/21 05:07:13;;;;;;;2.22;2.03;;;;;;;;;;2057693;28;20189;-58
2021/01/21 05:08:14;;;;;;;1.75;1.50;;;;;;;;;;2060539;28;20246;-58
2021/01/21 05:09:35;;;;;;;1.60;1.50;;;;;;;;;;2079003;28;20176;-59
2021/01/21 05:10:38;;;;;;;2.47;1.65;;;;;;;;;;2083605;28;20765;-57
2021/01/21 05:11:49;;;;;;;1.92;1.80;;;;;;;;;;2074789;28;20173;-59
2021/01/21 05:13:13;;;;;;;2.05;1.83;;;;;;;;;;2045618;28;20187;-58
2021/01/21 05:14:31;;;;;;;2.10;1.60;;;;;;;;;;2087616;28;20176;-58
2021/01/21 05:15:50;;;;;;;1.70;1.60;;;;;;;;;;2084191;28;20262;-51
2021/01/21 05:17:14;;;;;;;1.65;1.55;;;;;;;;;;2063561;28;20867;-55
2021/01/21 05:18:27;;;;;;;5.57;1.52;;;;;;;;;;2087788;28;20175;-55
2021/01/21 05:19:46;;;;;;;1.92;1.80;;;;;;;;;;2085453;28;20172;-58
2021/01/21 05:21:07;;;;;;;2.58;1.75;;;;;;;;;;2056236;28;20313;-56
2021/01/21 05:22:34;;;;;;;2.80;2.10;;;;;;;;;;2077690;28;20172;-60
2021/01/21 05:23:56;;;;;;;2.30;2.10;;;;;;;;;;2084188;28;20585;-56
2021/01/21 05:25:19;;;;;;;3.92;2.25;;;;;;;;;;2084212;28;20668;-59
2021/01/21 05:26:30;;;;;;;1.75;1.65;;;;;;;;;;2072910;28;20294;-56
2021/01/21 05:27:51;;;;;;;2.28;1.90;;;;;;;;;;2082951;28;20246;-55
2021/01/21 05:29:25;;;;;;;1.83;1.73;;;;;;;;;;2070870;28;20623;-55
2021/01/21 05:30:29;;;;;;;2.08;1.88;;;;;;;;;;2080270;28;20181;-59
2021/01/21 05:31:32;;;;;;;3.22;1.75;;;;;;;;;;2079139;28;20251;-57
2021/01/21 05:32:35;;;;;;;2.42;1.90;;;;;;;;;;2081338;28;20199;-58
2021/01/21 05:33:51;;;;;;;3.55;1.63;;;;;;;;;;2074809;28;20169;-57
2021/01/21 05:34:59;;;;;;;3.40;1.80;;;;;;;;;;2080803;28;20200;-55
2021/01/21 05:36:07;;;;;;;1.77;1.67;;;;;;;;;;2074328;28;20243;-57
2021/01/21 05:37:14;;;;;;;1.60;1.50;;;;;;;;;;2072459;28;20176;-56
2021/01/21 05:38:34;;;;;;;4.70;1.90;;;;;;;;;;2080712;28;20168;-58
2021/01/21 05:39:53;;;;;;;1.60;1.50;;;;;;;;;;2083593;28;20172;-58
2021/01/21 05:41:17;;;;;;;2.10;2.00;;;;;;;;;;2089415;28;20247;-55
2021/01/21 05:42:35;;;;;;;1.48;1.38;;;;;;;;;;2074586;28;20818;-57
2021/01/21 05:43:54;;;;;;;1.48;1.38;;;;;;;;;;2069965;28;20646;-56
2021/01/21 05:45:03;;;;;;;1.98;1.50;;;;;;;;;;2081277;28;20181;-56
2021/01/21 05:46:27;;;;;;;1.80;1.70;;;;;;;;;;2077853;28;20197;-53
2021/01/21 05:47:27;;;;;;;1.42;1.30;;;;;;;;;;2070748;28;20192;-55
2021/01/21 05:48:30;;;;;;;1.40;1.40;;;;;;;;;;2081002;28;20168;-56
2021/01/21 05:49:31;;;;;;;1.77;1.67;;;;;;;;;;2075979;28;20260;-55
2021/01/21 05:50:37;;;;;;;4.63;2.05;;;;;;;;;;2059587;28;20174;-55
2021/01/21 05:51:38;;;;;;;1.42;1.30;;;;;;;;;;2072335;28;20179;-57
2021/01/21 05:52:48;;;;;;;2.00;1.90;;;;;;;;;;2080852;28;20184;-55
2021/01/21 05:53:53;;;;;;;1.98;1.48;;;;;;;;;;2068414;28;20176;-57
2021/01/21 05:55:08;;;;;;;1.85;1.75;;;;;;;;;;2071760;28;20235;-55
2021/01/21 05:56:28;;;;;;;2.35;1.50;;;;;;;;;;2069414;28;20209;-57
2021/01/21 05:57:46;;;;;;;1.40;1.30;;;;;;;;;;2075102;28;20168;-55
2021/01/21 05:58:49;;;;;;;1.48;1.38;;;;;;;;;;2072538;28;20177;-57
2021/01/21 05:59:50;;;;;;;1.45;1.25;;;;;;;;;;2073349;28;20211;-57
2021/01/21 06:01:13;;;;;;;2.00;1.60;;;;;;;;;;2081498;28;20215;-55
2021/01/21 06:02:19;;;;;;;1.92;1.50;;;;;;;;;;2085096;28;20540;-57
2021/01/21 06:03:26;;;;;;;1.52;1.20;;;;;;;;;;2081550;28;20173;-54
2021/01/21 06:04:34;;;;;;;1.77;1.67;;;;;;;;;;2079761;28;20219;-56
2021/01/21 06:05:35;;;;;;;3.95;1.65;;;;;;;;;;2076322;28;20187;-57
2021/01/21 06:06:39;;;;;;;1.40;1.30;;;;;;;;;;2089574;28;20210;-57
2021/01/21 06:07:40;;;;;;;1.63;1.30;;;;;;;;;;2072673;28;20678;-55
2021/01/21 06:08:43;;;;;;;2.03;1.40;;;;;;;;;;2081113;28;20211;-54
2021/01/21 06:09:43;;;;;;;1.33;1.23;;;;;;;;;;2077435;28;20729;-57
2021/01/21 06:10:44;;;;;;;1.40;1.30;;;;;;;;;;2073187;28;20172;-55
2021/01/21 06:11:44;;;;;;;1.40;1.35;;;;;;;;;;2068401;28;20595;-55
2021/01/21 06:12:45;;;;;;;1.52;1.42;;;;;;;;;;2075282;28;20177;-52
2021/01/21 06:13:46;;;;;;;1.35;1.23;;;;;;;;;;2079407;28;20168;-56
2021/01/21 06:14:46;;;;;;;1.30;1.30;;;;;;;;;;2070448;28;20287;-56
2021/01/21 06:15:48;;;;;;;2.60;1.20;;;;;;;;;;2064598;28;20208;-57
2021/01/21 06:16:49;;;;;;;1.52;1.42;;;;;;;;;;2075459;28;20195;-56
2021/01/21 06:17:50;;;;;;;2.05;1.85;;;;;;;;;;2078497;28;20177;-56
2021/01/21 06:19:12;;;;;;;1.70;1.40;;;;;;;;;;2072878;28;20157;-58
2021/01/21 06:20:21;;;;;;;1.35;1.27;;;;;;;;;;2082118;28;20238;-53
2021/01/21 06:21:28;;;;;;;1.25;0.90;;;;;;;;;;2081079;28;20172;-57
2021/01/21 06:22:41;;;;;;;1.75;1.17;;;;;;;;;;2078523;28;20323;-56
2021/01/21 06:23:44;;;;;;;1.83;1.05;;;;;;;;;;2075013;28;20177;-57
2021/01/21 06:25:01;;;;;;;4.03;1.70;;;;;;;;;;2082650;28;20178;-57
2021/01/21 06:26:02;;;;;;;1.23;1.10;;;;;;;;;;2081271;28;20189;-56
2021/01/21 06:27:02;;;;;;;1.20;1.20;;;;;;;;;;2085101;28;20209;-57
2021/01/21 06:28:03;;;;;;;4.00;1.60;;;;;;;;;;2087601;28;20196;-59
2021/01/21 06:29:04;;;;;;;1.80;1.07;;;;;;;;;;2087939;28;20691;-57
2021/01/21 06:30:04;;;;;;;1.60;1.50;;;;;;;;;;2091892;28;20188;-58
2021/01/21 06:31:05;;;;;;;1.53;1.13;;;;;;;;;;2083011;28;20176;-56
2021/01/21 06:32:08;;;;;;;2.10;1.53;;;;;;;;;;2079225;28;20177;-58
2021/01/21 06:33:11;;;;;;;2.10;1.70;;;;;;;;;;2086886;28;20238;-56
2021/01/21 06:34:18;;;;;;;1.40;1.30;;;;;;;;;;2082965;28;20621;-59